Main page
METAR-TAF:

METAR-TAF

Airports :

Skiathos International Airport

Skiathos, Greece

latitude: 39-11N, longitude: 023-30E, elevation: 15 m

Current weather observation

The report was made 9 hours and 29 minutes ago, at 12:50 UTC
Calm wind
Temperature 14°C
Humidity 67%
Pressure 1018 hPa
Visibility 10 km or more
Scattered clouds at a height of 2500 ft

METAR: LGSK 181250Z 00000KT 9999 SCT025 14/08 Q1018

Time: 00:19 (22:19 UTC)

Forecast

The report was made 2 hours and 19 minutes ago, at 20:00 UTC
Forecast valid from 18 at 21 UTC to 19 at 06 UTC
Wind 5 kt from variable directions
Visibility 10 km or more
Scattered clouds at a height of 2000 ft
Becoming
from 19 at 03 UTC to 19 at 05 UTC
Wind 12 kt from the North/Northwest

TAF: LGSK 182000Z 1821/1906 VRB05KT 9999 SCT020 BECMG 1903/1905 34012KT

Weather observations and forecasts of more than 4000 airports (METAR and TAF reports).

The available stations are represented by yellow and red dots on the map.

Hover mouse over dot to see the name of the station.

Then click to see weather observations and forecasts.

To change the map : click on the green buttons with a black cross to zoom in, on the green button with a dash to zoom out, or on the green arrows for adjacent maps.


METAR-TAF: